createdAt,value
2019-05-12T00:00:28.578Z,8.30
2019-05-12T00:05:13.398Z,8.30
2019-05-12T00:09:59.167Z,8.30
2019-05-12T00:14:45.221Z,8.20
2019-05-12T00:19:31.011Z,8.20
2019-05-12T00:24:18.647Z,8.10
2019-05-12T00:29:04.200Z,8.10
2019-05-12T00:33:50.471Z,8.10
2019-05-12T00:38:38.116Z,8.10
2019-05-12T00:43:23.697Z,8.10
2019-05-12T00:48:09.873Z,8.10
2019-05-12T00:52:57.939Z,8.10
2019-05-12T00:57:43.184Z,8.10
2019-05-12T01:02:28.923Z,8.10
2019-05-12T01:07:15.265Z,8.00
2019-05-12T01:12:01.101Z,7.90
2019-05-12T01:16:48.634Z,7.80
2019-05-12T01:21:35.080Z,7.80
2019-05-12T01:26:20.791Z,7.80
2019-05-12T01:31:08.584Z,7.80
2019-05-12T01:35:54.465Z,7.80
2019-05-12T01:40:40.253Z,7.70
2019-05-12T01:45:28.448Z,7.80
2019-05-12T01:50:13.668Z,7.90
2019-05-12T01:54:59.368Z,7.90
2019-05-12T01:59:45.160Z,7.80
2019-05-12T02:04:32.499Z,7.70
2019-05-12T02:09:20.273Z,7.70
2019-05-12T02:14:09.010Z,7.70
2019-05-12T02:18:54.246Z,7.70
2019-05-12T02:23:39.988Z,7.60
2019-05-12T02:28:25.705Z,7.60
2019-05-12T02:33:11.401Z,7.60
2019-05-12T02:37:57.147Z,7.50
2019-05-12T02:42:46.032Z,7.40
2019-05-12T02:47:30.300Z,7.40
2019-05-12T02:52:16.612Z,7.40
2019-05-12T02:57:04.501Z,7.40
2019-05-12T03:01:54.841Z,7.40
2019-05-12T03:06:40.954Z,7.40
2019-05-12T03:11:28.967Z,7.40
2019-05-12T03:16:15.200Z,7.30
2019-05-12T03:21:01.282Z,7.20
2019-05-12T03:25:46.975Z,7.20
2019-05-12T03:30:38.538Z,7.10
2019-05-12T03:35:20.038Z,7.10
2019-05-12T03:40:06.340Z,7.10
2019-05-12T03:44:54.611Z,7.10
2019-05-12T03:49:39.388Z,7.00
2019-05-12T03:54:25.155Z,7.00
2019-05-12T03:59:10.838Z,7.10
2019-05-12T04:03:56.578Z,7.10
2019-05-12T04:08:45.244Z,7.10
2019-05-12T04:13:29.669Z,7.10
2019-05-12T04:18:16.252Z,7.20
2019-05-12T04:23:05.915Z,7.10
2019-05-12T04:27:49.973Z,7.10
2019-05-12T04:32:35.988Z,7.00
2019-05-12T04:37:24.784Z,7.10
2019-05-12T04:42:09.254Z,7.10
2019-05-12T04:46:55.560Z,7.00
2019-05-12T04:51:44.994Z,6.90
2019-05-12T04:56:29.277Z,7.00
2019-05-12T05:01:15.758Z,7.10
2019-05-12T05:06:04.220Z,7.10
2019-05-12T05:10:48.978Z,7.10
2019-05-12T05:15:35.527Z,7.00
2019-05-12T05:20:21.254Z,7.00
2019-05-12T05:25:07.099Z,6.90
2019-05-12T05:29:54.371Z,6.80
2019-05-12T05:34:45.095Z,6.80
2019-05-12T05:39:27.904Z,6.70
2019-05-12T05:44:13.974Z,6.70
2019-05-12T05:48:59.860Z,6.60
2019-05-12T05:53:49.764Z,6.60
2019-05-12T05:58:33.989Z,6.70
2019-05-12T06:03:23.385Z,6.50
2019-05-12T06:08:09.456Z,6.50
2019-05-12T06:12:54.845Z,6.50
2019-05-12T06:17:40.680Z,6.60
2019-05-12T06:22:26.335Z,6.70
2019-05-12T06:27:16.095Z,6.60
2019-05-12T06:32:00.040Z,6.70
2019-05-12T06:36:46.871Z,6.60
2019-05-12T06:41:33.602Z,6.80
2019-05-12T06:46:22.691Z,6.80
2019-05-12T06:51:09.134Z,6.90
2019-05-12T06:55:54.949Z,7.00
2019-05-12T07:00:40.802Z,7.00
2019-05-12T07:05:27.974Z,7.10
2019-05-12T07:10:35.144Z,7.40
2019-05-12T07:15:03.823Z,7.60
2019-05-12T07:19:54.780Z,7.90
2019-05-12T07:24:40.960Z,7.80
2019-05-12T07:29:24.905Z,7.70
2019-05-12T07:34:13.504Z,7.80
2019-05-12T07:39:10.199Z,8.00
2019-05-12T07:44:00.834Z,8.00
2019-05-12T07:48:50.837Z,8.10
2019-05-12T07:53:34.522Z,8.20
2019-05-12T07:58:23.743Z,8.00
2019-05-12T08:03:16.163Z,8.20
2019-05-12T08:08:00.653Z,8.20
2019-05-12T08:12:44.659Z,8.40
2019-05-12T08:17:33.559Z,8.60
2019-05-12T08:22:18.794Z,8.80
2019-05-12T08:27:06.699Z,8.50
2019-05-12T08:31:54.830Z,8.30
2019-05-12T08:36:44.923Z,8.20
2019-05-12T08:41:28.066Z,7.90
2019-05-12T08:46:15.700Z,8.00
2019-05-12T08:51:05.385Z,8.00
2019-05-12T08:55:48.708Z,8.10
2019-05-12T09:00:46.427Z,8.30
2019-05-12T09:05:34.524Z,8.20
2019-05-12T09:10:16.952Z,7.70
2019-05-12T09:15:04.768Z,7.70
2019-05-12T09:19:55.090Z,7.80
2019-05-12T09:24:37.799Z,8.00
2019-05-12T09:29:25.270Z,8.10
2019-05-12T09:34:12.017Z,8.00
2019-05-12T09:39:01.569Z,8.20
2019-05-12T09:43:50.398Z,8.40
2019-05-12T09:48:33.967Z,8.90
2019-05-12T09:53:19.922Z,9.10
2019-05-12T09:58:05.929Z,8.90
2019-05-12T10:02:59.025Z,9.10
2019-05-12T10:07:39.423Z,9.80
2019-05-12T10:12:29.356Z,10.10
2019-05-12T10:17:14.221Z,10.10
2019-05-12T10:22:00.114Z,10.00
2019-05-12T10:26:49.585Z,9.90
2019-05-12T10:31:35.588Z,10.00
2019-05-12T10:36:21.261Z,9.80
2019-05-12T10:41:07.341Z,9.80
2019-05-12T10:45:53.778Z,10.00
2019-05-12T10:50:40.085Z,9.60
2019-05-12T10:55:25.862Z,9.70
2019-05-12T11:00:19.793Z,9.80
2019-05-12T11:05:02.609Z,9.80
2019-05-12T11:09:48.496Z,9.80
2019-05-12T11:14:34.620Z,10.00
2019-05-12T11:19:20.713Z,10.00
2019-05-12T11:24:06.648Z,10.00
2019-05-12T11:28:53.199Z,9.80
2019-05-12T11:33:39.604Z,8.90
2019-05-12T11:38:25.584Z,8.50
2019-05-12T11:43:14.053Z,8.60
2019-05-12T11:48:05.935Z,8.60
2019-05-12T11:52:50.996Z,8.90
2019-05-12T11:57:35.794Z,9.40
2019-05-12T12:02:28.306Z,9.60
2019-05-12T12:07:09.731Z,9.70
2019-05-12T12:12:02.487Z,9.80
2019-05-12T12:16:49.977Z,9.50
2019-05-12T12:21:34.230Z,9.40
2019-05-12T12:26:30.353Z,9.60
2019-05-12T12:31:15.799Z,9.30
2019-05-12T12:36:01.582Z,9.10
2019-05-12T12:40:47.520Z,9.00
2019-05-12T12:45:43.435Z,9.00
2019-05-12T12:50:30.654Z,9.30
2019-05-12T12:55:17.067Z,9.50
2019-05-12T13:00:03.833Z,9.50
2019-05-12T13:04:50.565Z,9.40
2019-05-12T13:09:36.766Z,9.50
2019-05-12T13:14:23.445Z,9.60
2019-05-12T13:19:13.151Z,9.40
2019-05-12T13:23:57.653Z,9.20
2019-05-12T13:28:47.466Z,9.40
2019-05-12T13:33:30.945Z,9.70
2019-05-12T13:38:16.657Z,9.90
2019-05-12T13:43:03.874Z,10.10
2019-05-12T13:47:50.013Z,10.40
2019-05-12T13:52:35.961Z,10.70
2019-05-12T13:57:23.601Z,10.90
2019-05-12T14:02:13.991Z,10.80
2019-05-12T14:06:57.693Z,10.60
2019-05-12T14:11:43.831Z,10.30
2019-05-12T14:16:29.927Z,9.50
2019-05-12T14:21:16.113Z,9.30
2019-05-12T14:26:02.235Z,8.90
2019-05-12T14:30:51.623Z,9.00
2019-05-12T14:35:40.579Z,9.10
2019-05-12T14:40:29.976Z,9.10
2019-05-12T14:45:14.063Z,9.10
2019-05-12T14:50:00.677Z,9.10
2019-05-12T14:54:46.619Z,9.10
2019-05-12T14:59:39.221Z,9.10
2019-05-12T15:04:27.844Z,9.00
2019-05-12T15:09:11.419Z,9.00
2019-05-12T15:13:56.446Z,9.00
2019-05-12T15:18:46.598Z,8.80
2019-05-12T15:23:37.080Z,9.00
2019-05-12T15:28:17.820Z,9.20
2019-05-12T15:33:04.485Z,9.50
2019-05-12T15:37:52.906Z,9.20
2019-05-12T15:42:38.216Z,9.30
2019-05-12T15:47:29.575Z,9.30
2019-05-12T15:52:14.051Z,9.10
2019-05-12T15:56:59.467Z,9.10
2019-05-12T16:01:45.618Z,9.40
2019-05-12T16:06:31.515Z,9.70
2019-05-12T16:11:17.601Z,9.80
2019-05-12T16:16:06.578Z,9.60
2019-05-12T16:20:53.453Z,9.20
2019-05-12T16:25:38.957Z,9.10
2019-05-12T16:30:27.081Z,8.80
2019-05-12T16:35:14.514Z,8.70
2019-05-12T16:40:01.327Z,8.60
2019-05-12T16:44:47.157Z,8.50
2019-05-12T16:49:34.785Z,8.60
2019-05-12T16:54:21.215Z,8.40
2019-05-12T16:59:15.614Z,8.30
2019-05-12T17:03:54.889Z,8.30
2019-05-12T17:08:40.761Z,8.30
2019-05-12T17:13:26.643Z,8.30
2019-05-12T17:18:16.031Z,8.10
2019-05-12T17:23:03.444Z,8.20
2019-05-12T17:27:49.225Z,8.20
2019-05-12T17:32:35.187Z,8.30
2019-05-12T17:37:23.746Z,8.20
2019-05-12T17:42:14.813Z,8.10
2019-05-12T17:46:58.966Z,8.00
2019-05-12T17:51:44.938Z,7.90
2019-05-12T17:56:34.074Z,7.80
2019-05-12T18:01:22.994Z,7.80
2019-05-12T18:06:06.138Z,7.70
2019-05-12T18:10:54.274Z,7.60
2019-05-12T18:15:39.931Z,7.60
2019-05-12T18:20:25.871Z,7.50
2019-05-12T18:25:14.351Z,7.50
2019-05-12T18:29:59.642Z,7.40
2019-05-12T18:34:45.742Z,7.40
2019-05-12T18:39:31.632Z,7.40
2019-05-12T18:44:28.862Z,7.30
2019-05-12T18:49:12.337Z,7.70
2019-05-12T18:53:53.979Z,7.50
2019-05-12T18:58:41.357Z,7.40
2019-05-12T19:03:27.511Z,7.40
2019-05-12T19:08:14.083Z,7.30
2019-05-12T19:13:02.035Z,7.10
2019-05-12T19:17:47.940Z,7.70
2019-05-12T19:22:34.212Z,7.50
2019-05-12T19:27:20.976Z,7.40
2019-05-12T19:32:06.896Z,7.30
2019-05-12T19:36:53.056Z,7.20
2019-05-12T19:41:39.023Z,7.30
2019-05-12T19:46:25.085Z,7.20
2019-05-12T19:51:21.832Z,7.10
2019-05-12T19:55:58.431Z,7.00
2019-05-12T20:00:44.645Z,6.90
2019-05-12T20:05:30.711Z,7.00
2019-05-12T20:10:17.025Z,6.90
2019-05-12T20:15:04.048Z,6.90
2019-05-12T20:19:50.121Z,6.90
2019-05-12T20:24:35.935Z,6.80
2019-05-12T20:29:26.532Z,6.90
2019-05-12T20:34:11.100Z,6.80
2019-05-12T20:38:57.406Z,6.80
2019-05-12T20:43:44.302Z,6.80
2019-05-12T20:48:31.308Z,6.70
2019-05-12T20:53:24.721Z,6.80
2019-05-12T20:58:05.136Z,6.80
2019-05-12T21:02:53.938Z,6.80
2019-05-12T21:07:41.401Z,6.80
2019-05-12T21:12:27.288Z,6.80
2019-05-12T21:17:15.815Z,6.70
2019-05-12T21:22:00.659Z,6.80
2019-05-12T21:26:46.496Z,6.80
2019-05-12T21:31:33.741Z,6.70
2019-05-12T21:36:24.492Z,6.70
2019-05-12T21:41:07.847Z,6.70
2019-05-12T21:45:54.503Z,6.70
2019-05-12T21:50:40.317Z,6.70
2019-05-12T21:55:26.708Z,6.70
2019-05-12T22:00:26.271Z,6.70
2019-05-12T22:05:14.036Z,6.70
2019-05-12T22:09:59.731Z,6.80
2019-05-12T22:14:46.287Z,6.80
2019-05-12T22:19:35.124Z,6.80
2019-05-12T22:24:27.556Z,6.70
2019-05-12T22:29:07.298Z,6.60
2019-05-12T22:33:56.274Z,6.60
2019-05-12T22:38:40.403Z,6.60
2019-05-12T22:43:26.150Z,6.60
2019-05-12T22:48:11.955Z,6.60
2019-05-12T22:52:57.770Z,6.60
2019-05-12T22:57:43.626Z,6.60
2019-05-12T23:02:30.197Z,6.60
2019-05-12T23:07:19.152Z,6.50
2019-05-12T23:12:04.187Z,6.50
2019-05-12T23:16:50.293Z,6.50
2019-05-12T23:21:35.984Z,6.50
2019-05-12T23:26:24.431Z,6.50
2019-05-12T23:31:09.643Z,6.50
2019-05-12T23:35:55.406Z,6.50
2019-05-12T23:40:43.242Z,6.50
2019-05-12T23:45:28.380Z,6.50
2019-05-12T23:50:14.430Z,6.40
2019-05-12T23:55:00.176Z,6.40
2019-05-12T23:59:45.970Z,6.40
